JRR467 EGNX-EBCI
Flight info
| Callsign | JRR467 |
|---|---|
| Flight time | N/A |
| Altitude | 35000 |
| Route | EBOTO P155 SIVDA P137 REDFA DCT CIV |
| Aircraft | A320/M-SDE3FGHIRWY/LB1 |
Departure
| Time | N/A |
|---|---|
| Airport | East Midlands Airport (EGNX) |
Arrival
| Time | 2026-05-03 21:04 |
|---|---|
| Airport | Brussels South Charleroi Airport (EBCI) |
| Time | Latitude | Longitude | Altitude | Speed | Heading |
|---|---|---|---|---|---|
| 2026-05-03 20:53 | 50.64862 | 4.31871 | 13014 ft | 381 kts | 135° |
| 2026-05-03 20:53 | 50.62873 | 4.34527 | 12432 ft | 372 kts | 152° |
| 2026-05-03 20:53 | 50.60651 | 4.36444 | 11875 ft | 367 kts | 155° |
| 2026-05-03 20:54 | 50.58407 | 4.38327 | 11309 ft | 365 kts | 155° |
| 2026-05-03 20:54 | 50.54101 | 4.41953 | 10988 ft | 336 kts | 155° |
| 2026-05-03 20:54 | 50.52083 | 4.43637 | 10864 ft | 322 kts | 155° |
| 2026-05-03 20:55 | 50.50139 | 4.45257 | 10740 ft | 310 kts | 155° |
| 2026-05-03 20:55 | 50.48349 | 4.47030 | 10619 ft | 302 kts | 142° |
| 2026-05-03 20:55 | 50.46965 | 4.49464 | 10400 ft | 299 kts | 126° |
| 2026-05-03 20:55 | 50.46100 | 4.52452 | 10029 ft | 304 kts | 107° |
| 2026-05-03 20:56 | 50.45660 | 4.55636 | 9695 ft | 301 kts | 104° |
| 2026-05-03 20:56 | 50.45230 | 4.58835 | 9144 ft | 298 kts | 104° |
| 2026-05-03 20:56 | 50.44799 | 4.61999 | 8447 ft | 295 kts | 105° |
| 2026-05-03 20:56 | 50.44368 | 4.65129 | 7842 ft | 290 kts | 105° |
| 2026-05-03 20:57 | 50.44163 | 4.68240 | 7349 ft | 285 kts | 90° |
| 2026-05-03 20:57 | 50.44459 | 4.71285 | 6836 ft | 282 kts | 75° |
| 2026-05-03 20:57 | 50.45188 | 4.74103 | 6355 ft | 274 kts | 66° |
| 2026-05-03 20:57 | 50.46010 | 4.76607 | 6274 ft | 250 kts | 54° |
| 2026-05-03 20:58 | 50.47261 | 4.78408 | 6184 ft | 248 kts | 27° |
| 2026-05-03 20:58 | 50.48853 | 4.79202 | 5983 ft | 232 kts | 1° |
| 2026-05-03 20:58 | 50.50392 | 4.78924 | 5550 ft | 216 kts | 335° |
| 2026-05-03 20:58 | 50.51735 | 4.77970 | 5194 ft | 211 kts | 330° |
| 2026-05-03 20:59 | 50.53045 | 4.76952 | 4851 ft | 207 kts | 320° |
| 2026-05-03 20:59 | 50.53909 | 4.75298 | 4441 ft | 189 kts | 283° |
| 2026-05-03 20:59 | 50.54019 | 4.73387 | 4202 ft | 168 kts | 255° |
| 2026-05-03 20:59 | 50.53620 | 4.71752 | 3983 ft | 155 kts | 243° |
| 2026-05-03 21:00 | 50.53192 | 4.70259 | 3784 ft | 145 kts | 242° |
| 2026-05-03 21:00 | 50.52923 | 4.69319 | 3669 ft | 140 kts | 242° |
| 2026-05-03 21:00 | 50.52404 | 4.67515 | 3439 ft | 133 kts | 242° |
| 2026-05-03 21:00 | 50.52023 | 4.66181 | 3261 ft | 134 kts | 243° |
| 2026-05-03 21:01 | 50.51637 | 4.64841 | 3088 ft | 135 kts | 243° |
| 2026-05-03 21:01 | 50.51253 | 4.63499 | 2910 ft | 135 kts | 242° |
| 2026-05-03 21:01 | 50.50863 | 4.62151 | 2737 ft | 136 kts | 242° |
| 2026-05-03 21:01 | 50.50473 | 4.60801 | 2550 ft | 135 kts | 242° |
| 2026-05-03 21:02 | 50.50088 | 4.59468 | 2376 ft | 133 kts | 242° |
| 2026-05-03 21:02 | 50.49709 | 4.58144 | 2173 ft | 132 kts | 241° |
| 2026-05-03 21:02 | 50.49332 | 4.56831 | 1980 ft | 131 kts | 241° |
| 2026-05-03 21:02 | 50.48954 | 4.55520 | 1777 ft | 132 kts | 240° |
| 2026-05-03 21:03 | 50.48574 | 4.54214 | 1595 ft | 131 kts | 241° |
| 2026-05-03 21:03 | 50.48200 | 4.52932 | 1418 ft | 131 kts | 242° |
| 2026-05-03 21:03 | 50.47824 | 4.51621 | 1247 ft | 132 kts | 242° |
| 2026-05-03 21:03 | 50.47441 | 4.50313 | 1042 ft | 132 kts | 243° |
| 2026-05-03 21:04 | 50.47063 | 4.49005 | 855 ft | 132 kts | 243° |
| 2026-05-03 21:04 | 50.46685 | 4.47691 | 698 ft | 133 kts | 243° |
| 2026-05-03 21:04 | 50.46307 | 4.46389 | 592 ft | 123 kts | 244° |
| 2026-05-03 21:04 | 50.46068 | 4.45573 | 593 ft | 47 kts | 245° |
| 2026-05-03 21:05 | 50.45946 | 4.45152 | 591 ft | 38 kts | 245° |
| 2026-05-03 21:05 | 50.45882 | 4.44873 | 596 ft | 24 kts | 276° |
| 2026-05-03 21:05 | 50.46006 | 4.44785 | 596 ft | 21 kts | 23° |
| 2026-05-03 21:05 | 50.46074 | 4.44973 | 596 ft | 20 kts | 66° |
| 2026-05-03 21:06 | 50.46132 | 4.45172 | 598 ft | 19 kts | 67° |
| 2026-05-03 21:06 | 50.46185 | 4.45354 | 599 ft | 18 kts | 65° |
| 2026-05-03 21:06 | 50.46234 | 4.45524 | 599 ft | 16 kts | 66° |
| 2026-05-03 21:06 | 50.46279 | 4.45675 | 598 ft | 15 kts | 66° |
| 2026-05-03 21:07 | 50.46346 | 4.45908 | 597 ft | 30 kts | 65° |
| 2026-05-03 21:07 | 50.46438 | 4.46222 | 591 ft | 34 kts | 65° |
| 2026-05-03 21:07 | 50.46523 | 4.46517 | 590 ft | 20 kts | 65° |
| 2026-05-03 21:07 | 50.46593 | 4.46541 | 591 ft | 8 kts | 337° |
| 2026-05-03 21:08 | 50.46646 | 4.46555 | 589 ft | 8 kts | 42° |
| 2026-05-03 21:08 | 50.46674 | 4.46634 | 588 ft | 2 kts | 64° |
| 2026-05-03 21:08 | 50.46681 | 4.46651 | 588 ft | 4 kts | 51° |
| 2026-05-03 21:08 | 50.46718 | 4.46651 | 587 ft | 7 kts | 340° |
| 2026-05-03 21:09 | 50.46737 | 4.46637 | 586 ft | 0 kts | 334° |